23:13
Airports
History
Links
Donate
Help keep this website running!
PayPal
Bitcoin
Information on this page is community maintained and may be outdated or inaccurate and is intended for reference only or PC simulator navigating!
Always use approved charts for navigating.
LERM
ROBLEDILLO DE MOHERNANDO
ROBLEDILLO DE MOHERNANDO (LERM)
Robledillo de Mohernando, Castille La Mancha, Spain (19227)
(U)
Lat/Lng:40° 51' 44.2" N / 3° 14' 49.24" W
40.862278 / -3.247012
Elevation:3097'ft 944mMSL
ID / ICAO:LERM
Runways:1
Longest:(01-19) 997.8m 3,274ft Asphalt
Distance To
Airport ID:
Nearby VORs <50NM
Nearby NDBs
Nearby WeatherUpdated 04-29-17 23:00 GMT
Nearby weather at LETO, Torrejon located 27.3 nautical miles from LERM
Altimeter: 29.85
Visibility: 3.7 statute miles
Wind: 2 knots (040°)
Temp: 9°c 48°f
Humidity: 100.0%

METAR: LETO 292300Z 04002KT 6000 BCFG FEW005 SCT030 09/09 Q1011 NOSIG

(Powered by phpweather)
Runway 01 / 19
Dimensions:997.8 x 10.1m 3274' x 33'ft
Surface:Asphalt
Runway 01 [A]Runway 19 [B]
Heading:007°TH 187°TH
Lat:
Lng:
40° 51' 28.12"N
3° 14' 51.96"W
40° 52' 0.28"N
3° 14' 46.52"W
Google Map
Nearby Airports
(C) Torrejon 27.3 NM
LETO (WX) SSW 202°
(C) Barajas 30.1 NM
LEMD (WX) SSW 212°
(C) Cuatro Vientos 44.1 NM
LEVS (WX) SW 219°
(C) Getafe 46.6 NM
LEGT (WX) SSW 212°
(U) FUENTEMILANOS 51.9 NM
LEFM W 271°
(U) OCANA 65.3 NM
LEOC S 191°
(U) Soria-Garray 77.2 NM
LEGY NNE 31°
VFR Chart
Flight Planning at SkyVector.com